< Typhoon 199102 1991 Season Typhoon 199104 >
Typhoon 199103 (VANESSA)
General InformationTrack Information on Google MapsDetailed Wind InformationList of All Images || Disaster Info.ResourceGoogle EarthGE AnimationAtom FeedGeoJSON
Detalied Best Track (Time Zone = UTC)
Year Month Day Hour Lat. Long. Pressure (hPa) Wind (kt) Class Image Chart
1991 4 23 06 7.9 131.2 1006 0 2 Image Chart
1991 4 23 12 8.0 130.0 1004 0 2 Image Chart
1991 4 23 18 8.2 128.8 1004 0 2 Image Chart
1991 4 24 00 8.4 127.6 1004 0 2 Image Chart
1991 4 24 06 8.7 126.4 1002 0 2 Image Chart
1991 4 24 12 9.1 125.2 1002 0 2 Image Chart
1991 4 24 18 9.6 124.1 1002 0 2 Image Chart
1991 4 25 00 9.9 122.9 1004 0 2 Image Chart
1991 4 25 06 10.4 121.7 1004 0 2 Image Chart
1991 4 25 12 10.9 120.4 1006 0 2 Image Chart
1991 4 25 18 11.3 119.1 1004 0 2 Image Chart
1991 4 26 00 11.5 117.8 1002 35 3 Image Chart
1991 4 26 06 12.0 116.5 998 40 3 Image Chart
1991 4 26 12 12.4 115.3 996 40 3 Image Chart
1991 4 26 18 12.8 114.3 994 45 3 Image Chart
1991 4 27 00 13.4 113.3 994 45 3 Image Chart
1991 4 27 06 14.1 112.5 996 40 3 Image Chart
1991 4 27 12 15.0 111.8 998 40 3 Image Chart
1991 4 27 18 15.8 111.4 1002 35 3 Image Chart
1991 4 28 00 16.7 111.0 1004 0 2 Image Chart
1991 4 28 06 17.6 110.8 1006 0 2 Image Chart
Japan Meteorological Agency Best Track Data | Correction Date : 1992-01-04
< Typhoon 199102 1991 Season Typhoon 199104 >

Help